sensor_id;sensor_type;location;lat;lon;timestamp;P1;durP1;ratioP1;P2;durP2;ratioP2
15354;SDS011;7777;52.254;9.618;2023-03-14T00:02:22;2.60;;;1.40;;
15354;SDS011;7777;52.254;9.618;2023-03-14T00:04:48;5.97;;;1.37;;
15354;SDS011;7777;52.254;9.618;2023-03-14T00:07:13;4.90;;;1.37;;
15354;SDS011;7777;52.254;9.618;2023-03-14T00:09:39;7.20;;;1.87;;
15354;SDS011;7777;52.254;9.618;2023-03-14T00:12:06;3.20;;;1.17;;
15354;SDS011;7777;52.254;9.618;2023-03-14T00:14:32;3.40;;;1.23;;
15354;SDS011;7777;52.254;9.618;2023-03-14T00:16:58;2.27;;;1.10;;
15354;SDS011;7777;52.254;9.618;2023-03-14T00:19:24;2.70;;;1.00;;
15354;SDS011;7777;52.254;9.618;2023-03-14T00:21:49;1.93;;;1.47;;
15354;SDS011;7777;52.254;9.618;2023-03-14T00:24:15;6.93;;;1.70;;
15354;SDS011;7777;52.254;9.618;2023-03-14T00:26:41;2.67;;;0.97;;
15354;SDS011;7777;52.254;9.618;2023-03-14T00:29:06;4.37;;;0.90;;
15354;SDS011;7777;52.254;9.618;2023-03-14T00:31:32;4.33;;;1.40;;
15354;SDS011;7777;52.254;9.618;2023-03-14T00:33:58;5.50;;;1.50;;
15354;SDS011;7777;52.254;9.618;2023-03-14T00:36:24;3.43;;;1.27;;
15354;SDS011;7777;52.254;9.618;2023-03-14T00:38:51;5.00;;;1.30;;
15354;SDS011;7777;52.254;9.618;2023-03-14T00:41:17;2.80;;;1.47;;
15354;SDS011;7777;52.254;9.618;2023-03-14T00:43:49;3.80;;;1.10;;
15354;SDS011;7777;52.254;9.618;2023-03-14T00:46:16;2.83;;;1.10;;
15354;SDS011;7777;52.254;9.618;2023-03-14T00:48:43;3.07;;;1.23;;
15354;SDS011;7777;52.254;9.618;2023-03-14T00:51:10;1.67;;;1.10;;
15354;SDS011;7777;52.254;9.618;2023-03-14T00:53:38;4.90;;;1.50;;
15354;SDS011;7777;52.254;9.618;2023-03-14T00:56:08;2.77;;;1.13;;
15354;SDS011;7777;52.254;9.618;2023-03-14T00:58:36;4.17;;;1.40;;
15354;SDS011;7777;52.254;9.618;2023-03-14T01:01:09;3.83;;;1.23;;
15354;SDS011;7777;52.254;9.618;2023-03-14T01:03:39;3.40;;;1.23;;
15354;SDS011;7777;52.254;9.618;2023-03-14T01:06:09;2.97;;;1.03;;
15354;SDS011;7777;52.254;9.618;2023-03-14T01:08:40;9.23;;;1.73;;
15354;SDS011;7777;52.254;9.618;2023-03-14T01:11:11;5.37;;;1.27;;
15354;SDS011;7777;52.254;9.618;2023-03-14T01:13:41;3.73;;;1.53;;
15354;SDS011;7777;52.254;9.618;2023-03-14T01:16:07;3.33;;;1.50;;
15354;SDS011;7777;52.254;9.618;2023-03-14T01:18:36;4.60;;;1.40;;
15354;SDS011;7777;52.254;9.618;2023-03-14T01:21:09;3.50;;;1.20;;
15354;SDS011;7777;52.254;9.618;2023-03-14T01:23:38;3.83;;;1.50;;
15354;SDS011;7777;52.254;9.618;2023-03-14T01:26:04;3.70;;;1.40;;
15354;SDS011;7777;52.254;9.618;2023-03-14T01:28:33;2.77;;;1.30;;
15354;SDS011;7777;52.254;9.618;2023-03-14T01:31:02;2.60;;;1.00;;
15354;SDS011;7777;52.254;9.618;2023-03-14T01:33:29;3.47;;;1.27;;
15354;SDS011;7777;52.254;9.618;2023-03-14T01:35:55;5.23;;;1.57;;
15354;SDS011;7777;52.254;9.618;2023-03-14T01:38:20;6.03;;;1.60;;
15354;SDS011;7777;52.254;9.618;2023-03-14T01:40:46;6.70;;;1.43;;
15354;SDS011;7777;52.254;9.618;2023-03-14T01:43:13;2.30;;;1.20;;
15354;SDS011;7777;52.254;9.618;2023-03-14T01:48:31;2.77;;;1.30;;
15354;SDS011;7777;52.254;9.618;2023-03-14T01:51:02;3.77;;;1.50;;
15354;SDS011;7777;52.254;9.618;2023-03-14T01:53:32;4.30;;;1.20;;
15354;SDS011;7777;52.254;9.618;2023-03-14T01:56:00;10.03;;;1.60;;
15354;SDS011;7777;52.254;9.618;2023-03-14T01:58:28;4.27;;;1.20;;
15354;SDS011;7777;52.254;9.618;2023-03-14T02:00:57;9.87;;;1.93;;
15354;SDS011;7777;52.254;9.618;2023-03-14T02:03:24;3.67;;;1.20;;
15354;SDS011;7777;52.254;9.618;2023-03-14T02:05:52;2.37;;;1.30;;
15354;SDS011;7777;52.254;9.618;2023-03-14T02:08:21;5.13;;;1.10;;
15354;SDS011;7777;52.254;9.618;2023-03-14T02:10:49;3.63;;;1.30;;
15354;SDS011;7777;52.254;9.618;2023-03-14T02:13:16;2.63;;;1.10;;
15354;SDS011;7777;52.254;9.618;2023-03-14T02:15:43;3.27;;;1.30;;
15354;SDS011;7777;52.254;9.618;2023-03-14T02:18:10;2.97;;;1.50;;
15354;SDS011;7777;52.254;9.618;2023-03-14T02:20:42;4.63;;;1.33;;
15354;SDS011;7777;52.254;9.618;2023-03-14T02:23:15;6.03;;;1.60;;
15354;SDS011;7777;52.254;9.618;2023-03-14T02:26:01;4.60;;;1.43;;
15354;SDS011;7777;52.254;9.618;2023-03-14T02:28:36;4.50;;;1.20;;
15354;SDS011;7777;52.254;9.618;2023-03-14T02:31:02;4.10;;;1.40;;
15354;SDS011;7777;52.254;9.618;2023-03-14T02:33:28;2.73;;;1.30;;
15354;SDS011;7777;52.254;9.618;2023-03-14T02:35:58;3.67;;;1.17;;
15354;SDS011;7777;52.254;9.618;2023-03-14T02:38:37;3.87;;;1.47;;
15354;SDS011;7777;52.254;9.618;2023-03-14T02:41:23;3.30;;;1.20;;
15354;SDS011;7777;52.254;9.618;2023-03-14T02:43:49;4.77;;;1.33;;
15354;SDS011;7777;52.254;9.618;2023-03-14T02:46:18;3.30;;;1.20;;
15354;SDS011;7777;52.254;9.618;2023-03-14T02:48:47;6.10;;;1.40;;
15354;SDS011;7777;52.254;9.618;2023-03-14T02:51:29;4.60;;;1.57;;
15354;SDS011;7777;52.254;9.618;2023-03-14T02:53:55;4.17;;;1.37;;
15354;SDS011;7777;52.254;9.618;2023-03-14T02:56:20;4.83;;;1.13;;
15354;SDS011;7777;52.254;9.618;2023-03-14T02:58:46;3.57;;;1.63;;
15354;SDS011;7777;52.254;9.618;2023-03-14T03:01:12;4.07;;;1.20;;
15354;SDS011;7777;52.254;9.618;2023-03-14T03:03:37;6.90;;;1.20;;
15354;SDS011;7777;52.254;9.618;2023-03-14T03:06:03;3.77;;;1.27;;
15354;SDS011;7777;52.254;9.618;2023-03-14T03:08:29;2.93;;;1.30;;
15354;SDS011;7777;52.254;9.618;2023-03-14T03:10:55;3.97;;;1.30;;
15354;SDS011;7777;52.254;9.618;2023-03-14T03:13:22;5.40;;;1.20;;
15354;SDS011;7777;52.254;9.618;2023-03-14T03:15:48;4.17;;;1.40;;
15354;SDS011;7777;52.254;9.618;2023-03-14T03:18:14;2.70;;;0.97;;
15354;SDS011;7777;52.254;9.618;2023-03-14T03:20:39;4.37;;;1.00;;
15354;SDS011;7777;52.254;9.618;2023-03-14T03:23:05;6.27;;;1.60;;
15354;SDS011;7777;52.254;9.618;2023-03-14T03:25:31;4.73;;;1.23;;
15354;SDS011;7777;52.254;9.618;2023-03-14T03:27:57;4.67;;;1.00;;
15354;SDS011;7777;52.254;9.618;2023-03-14T03:30:23;8.47;;;1.10;;
15354;SDS011;7777;52.254;9.618;2023-03-14T03:32:48;3.80;;;1.30;;
15354;SDS011;7777;52.254;9.618;2023-03-14T03:35:14;6.80;;;1.60;;
15354;SDS011;7777;52.254;9.618;2023-03-14T03:37:40;4.87;;;1.67;;
15354;SDS011;7777;52.254;9.618;2023-03-14T03:40:07;3.63;;;1.13;;
15354;SDS011;7777;52.254;9.618;2023-03-14T03:42:34;3.70;;;1.30;;
15354;SDS011;7777;52.254;9.618;2023-03-14T03:45:00;5.00;;;1.53;;
15354;SDS011;7777;52.254;9.618;2023-03-14T03:47:27;4.03;;;1.10;;
15354;SDS011;7777;52.254;9.618;2023-03-14T03:49:52;2.73;;;0.83;;
15354;SDS011;7777;52.254;9.618;2023-03-14T03:52:18;2.87;;;1.07;;
15354;SDS011;7777;52.254;9.618;2023-03-14T03:54:45;5.43;;;1.40;;
15354;SDS011;7777;52.254;9.618;2023-03-14T03:57:11;6.33;;;1.30;;
15354;SDS011;7777;52.254;9.618;2023-03-14T03:59:36;4.27;;;1.07;;
15354;SDS011;7777;52.254;9.618;2023-03-14T04:02:05;2.67;;;0.70;;
15354;SDS011;7777;52.254;9.618;2023-03-14T04:04:30;3.97;;;1.30;;
15354;SDS011;7777;52.254;9.618;2023-03-14T04:06:56;1.30;;;0.90;;
15354;SDS011;7777;52.254;9.618;2023-03-14T04:09:22;3.30;;;0.73;;
15354;SDS011;7777;52.254;9.618;2023-03-14T04:11:47;2.17;;;0.77;;
15354;SDS011;7777;52.254;9.618;2023-03-14T04:14:13;3.67;;;0.70;;
15354;SDS011;7777;52.254;9.618;2023-03-14T04:16:39;6.67;;;1.03;;
15354;SDS011;7777;52.254;9.618;2023-03-14T04:19:05;4.40;;;1.23;;
15354;SDS011;7777;52.254;9.618;2023-03-14T04:21:30;2.87;;;0.90;;
15354;SDS011;7777;52.254;9.618;2023-03-14T04:23:56;1.30;;;0.70;;
15354;SDS011;7777;52.254;9.618;2023-03-14T04:26:22;2.17;;;0.83;;
15354;SDS011;7777;52.254;9.618;2023-03-14T04:28:47;2.40;;;0.60;;
15354;SDS011;7777;52.254;9.618;2023-03-14T04:31:17;2.37;;;0.60;;
15354;SDS011;7777;52.254;9.618;2023-03-14T04:33:45;0.93;;;0.60;;
15354;SDS011;7777;52.254;9.618;2023-03-14T04:36:11;1.40;;;0.80;;
15354;SDS011;7777;52.254;9.618;2023-03-14T04:38:38;1.77;;;0.50;;
15354;SDS011;7777;52.254;9.618;2023-03-14T04:41:03;1.70;;;0.63;;
15354;SDS011;7777;52.254;9.618;2023-03-14T04:43:30;1.73;;;0.40;;
15354;SDS011;7777;52.254;9.618;2023-03-14T04:45:56;2.07;;;0.40;;
15354;SDS011;7777;52.254;9.618;2023-03-14T04:48:23;3.73;;;0.70;;
15354;SDS011;7777;52.254;9.618;2023-03-14T04:50:50;3.93;;;0.70;;
15354;SDS011;7777;52.254;9.618;2023-03-14T04:53:16;3.13;;;0.50;;
15354;SDS011;7777;52.254;9.618;2023-03-14T04:55:47;1.57;;;0.60;;
15354;SDS011;7777;52.254;9.618;2023-03-14T04:58:15;5.27;;;0.70;;
15354;SDS011;7777;52.254;9.618;2023-03-14T05:00:40;1.57;;;0.57;;
15354;SDS011;7777;52.254;9.618;2023-03-14T05:03:06;2.77;;;0.67;;
15354;SDS011;7777;52.254;9.618;2023-03-14T05:05:32;4.63;;;0.90;;
15354;SDS011;7777;52.254;9.618;2023-03-14T05:07:57;2.77;;;0.77;;
15354;SDS011;7777;52.254;9.618;2023-03-14T05:10:23;3.70;;;0.70;;
15354;SDS011;7777;52.254;9.618;2023-03-14T05:12:49;1.60;;;0.70;;
15354;SDS011;7777;52.254;9.618;2023-03-14T05:15:15;3.80;;;1.00;;
15354;SDS011;7777;52.254;9.618;2023-03-14T05:17:40;9.07;;;1.27;;
15354;SDS011;7777;52.254;9.618;2023-03-14T05:20:06;5.57;;;1.30;;
15354;SDS011;7777;52.254;9.618;2023-03-14T05:22:34;4.23;;;1.20;;
15354;SDS011;7777;52.254;9.618;2023-03-14T05:24:59;6.00;;;1.00;;
15354;SDS011;7777;52.254;9.618;2023-03-14T05:27:25;7.03;;;1.70;;
15354;SDS011;7777;52.254;9.618;2023-03-14T05:29:51;5.37;;;1.23;;
15354;SDS011;7777;52.254;9.618;2023-03-14T05:32:17;5.17;;;0.90;;
15354;SDS011;7777;52.254;9.618;2023-03-14T05:34:44;4.40;;;1.20;;
15354;SDS011;7777;52.254;9.618;2023-03-14T05:37:10;9.47;;;1.70;;
15354;SDS011;7777;52.254;9.618;2023-03-14T05:39:36;3.37;;;1.27;;
15354;SDS011;7777;52.254;9.618;2023-03-14T05:42:02;4.60;;;1.07;;
15354;SDS011;7777;52.254;9.618;2023-03-14T05:44:27;2.97;;;1.10;;
15354;SDS011;7777;52.254;9.618;2023-03-14T05:46:53;4.87;;;0.97;;
15354;SDS011;7777;52.254;9.618;2023-03-14T05:49:19;3.27;;;1.17;;
15354;SDS011;7777;52.254;9.618;2023-03-14T05:51:44;3.53;;;1.10;;
15354;SDS011;7777;52.254;9.618;2023-03-14T05:54:10;3.30;;;1.27;;
15354;SDS011;7777;52.254;9.618;2023-03-14T05:56:35;5.07;;;1.07;;
15354;SDS011;7777;52.254;9.618;2023-03-14T05:59:01;8.57;;;1.20;;
15354;SDS011;7777;52.254;9.618;2023-03-14T06:01:28;5.50;;;0.90;;
15354;SDS011;7777;52.254;9.618;2023-03-14T06:03:54;4.43;;;1.00;;
15354;SDS011;7777;52.254;9.618;2023-03-14T06:06:20;7.57;;;1.37;;
15354;SDS011;7777;52.254;9.618;2023-03-14T06:08:46;4.33;;;1.20;;
15354;SDS011;7777;52.254;9.618;2023-03-14T06:11:12;4.70;;;1.03;;
15354;SDS011;7777;52.254;9.618;2023-03-14T06:13:38;5.53;;;1.33;;
15354;SDS011;7777;52.254;9.618;2023-03-14T06:16:05;3.67;;;1.10;;
15354;SDS011;7777;52.254;9.618;2023-03-14T06:18:31;5.33;;;1.30;;
15354;SDS011;7777;52.254;9.618;2023-03-14T06:20:57;1.67;;;0.50;;
15354;SDS011;7777;52.254;9.618;2023-03-14T06:23:23;5.50;;;1.10;;
15354;SDS011;7777;52.254;9.618;2023-03-14T06:25:50;3.27;;;1.17;;
15354;SDS011;7777;52.254;9.618;2023-03-14T06:28:16;3.83;;;0.73;;
15354;SDS011;7777;52.254;9.618;2023-03-14T06:30:42;10.37;;;1.63;;
15354;SDS011;7777;52.254;9.618;2023-03-14T06:33:07;4.73;;;1.13;;
15354;SDS011;7777;52.254;9.618;2023-03-14T06:35:33;7.33;;;1.40;;
15354;SDS011;7777;52.254;9.618;2023-03-14T06:37:59;3.70;;;1.03;;
15354;SDS011;7777;52.254;9.618;2023-03-14T06:40:25;2.03;;;0.90;;
15354;SDS011;7777;52.254;9.618;2023-03-14T06:42:50;2.30;;;0.60;;
15354;SDS011;7777;52.254;9.618;2023-03-14T06:45:16;4.63;;;1.30;;
15354;SDS011;7777;52.254;9.618;2023-03-14T06:47:42;4.17;;;1.10;;
15354;SDS011;7777;52.254;9.618;2023-03-14T06:50:08;2.73;;;0.70;;
15354;SDS011;7777;52.254;9.618;2023-03-14T06:52:35;1.60;;;0.50;;
15354;SDS011;7777;52.254;9.618;2023-03-14T06:55:01;1.40;;;0.77;;
15354;SDS011;7777;52.254;9.618;2023-03-14T06:57:26;4.80;;;0.90;;
15354;SDS011;7777;52.254;9.618;2023-03-14T06:59:52;4.00;;;0.83;;
15354;SDS011;7777;52.254;9.618;2023-03-14T07:02:18;1.53;;;0.80;;
15354;SDS011;7777;52.254;9.618;2023-03-14T07:04:43;2.33;;;1.00;;
15354;SDS011;7777;52.254;9.618;2023-03-14T07:07:09;2.37;;;0.73;;
15354;SDS011;7777;52.254;9.618;2023-03-14T07:09:35;3.23;;;1.03;;
15354;SDS011;7777;52.254;9.618;2023-03-14T07:12:01;2.33;;;0.77;;
15354;SDS011;7777;52.254;9.618;2023-03-14T07:14:29;4.23;;;0.60;;
15354;SDS011;7777;52.254;9.618;2023-03-14T07:16:55;2.80;;;0.63;;
15354;SDS011;7777;52.254;9.618;2023-03-14T07:19:20;1.80;;;0.70;;
15354;SDS011;7777;52.254;9.618;2023-03-14T07:21:46;1.20;;;0.53;;
15354;SDS011;7777;52.254;9.618;2023-03-14T07:24:12;1.37;;;0.50;;
15354;SDS011;7777;52.254;9.618;2023-03-14T07:26:37;2.20;;;0.50;;
15354;SDS011;7777;52.254;9.618;2023-03-14T07:29:03;2.10;;;0.70;;
15354;SDS011;7777;52.254;9.618;2023-03-14T07:31:29;3.07;;;0.80;;
15354;SDS011;7777;52.254;9.618;2023-03-14T07:33:55;1.60;;;0.30;;
15354;SDS011;7777;52.254;9.618;2023-03-14T07:36:21;1.10;;;0.40;;
15354;SDS011;7777;52.254;9.618;2023-03-14T07:38:47;2.00;;;0.60;;
15354;SDS011;7777;52.254;9.618;2023-03-14T07:41:12;2.03;;;0.50;;
15354;SDS011;7777;52.254;9.618;2023-03-14T07:43:39;2.87;;;0.40;;
15354;SDS011;7777;52.254;9.618;2023-03-14T07:46:05;1.30;;;0.30;;
15354;SDS011;7777;52.254;9.618;2023-03-14T07:48:31;1.23;;;0.53;;
15354;SDS011;7777;52.254;9.618;2023-03-14T07:50:56;3.47;;;0.70;;
15354;SDS011;7777;52.254;9.618;2023-03-14T07:53:23;1.73;;;0.37;;
15354;SDS011;7777;52.254;9.618;2023-03-14T07:55:50;1.53;;;0.30;;
15354;SDS011;7777;52.254;9.618;2023-03-14T07:58:17;1.27;;;0.30;;
15354;SDS011;7777;52.254;9.618;2023-03-14T08:00:44;0.50;;;0.40;;
15354;SDS011;7777;52.254;9.618;2023-03-14T08:03:09;0.93;;;0.47;;
15354;SDS011;7777;52.254;9.618;2023-03-14T08:05:35;1.13;;;0.40;;
15354;SDS011;7777;52.254;9.618;2023-03-14T08:08:02;0.67;;;0.40;;
15354;SDS011;7777;52.254;9.618;2023-03-14T08:10:29;0.57;;;0.30;;
15354;SDS011;7777;52.254;9.618;2023-03-14T08:12:56;3.47;;;0.57;;
15354;SDS011;7777;52.254;9.618;2023-03-14T08:15:23;0.30;;;0.20;;
15354;SDS011;7777;52.254;9.618;2023-03-14T08:17:50;0.37;;;0.30;;
15354;SDS011;7777;52.254;9.618;2023-03-14T08:20:17;0.43;;;0.17;;
15354;SDS011;7777;52.254;9.618;2023-03-14T08:22:44;2.60;;;0.30;;
15354;SDS011;7777;52.254;9.618;2023-03-14T08:25:10;1.70;;;0.40;;
15354;SDS011;7777;52.254;9.618;2023-03-14T08:27:36;1.87;;;0.30;;
15354;SDS011;7777;52.254;9.618;2023-03-14T08:30:04;1.23;;;0.30;;
15354;SDS011;7777;52.254;9.618;2023-03-14T08:32:31;0.20;;;0.20;;
15354;SDS011;7777;52.254;9.618;2023-03-14T08:34:57;2.03;;;0.40;;
15354;SDS011;7777;52.254;9.618;2023-03-14T08:37:23;0.77;;;0.40;;
15354;SDS011;7777;52.254;9.618;2023-03-14T08:39:50;0.67;;;0.30;;
15354;SDS011;7777;52.254;9.618;2023-03-14T08:42:16;0.77;;;0.30;;
15354;SDS011;7777;52.254;9.618;2023-03-14T08:44:43;2.73;;;0.40;;
15354;SDS011;7777;52.254;9.618;2023-03-14T08:47:09;3.50;;;0.80;;
15354;SDS011;7777;52.254;9.618;2023-03-14T08:49:34;2.00;;;0.50;;
15354;SDS011;7777;52.254;9.618;2023-03-14T08:52:03;1.77;;;0.37;;
15354;SDS011;7777;52.254;9.618;2023-03-14T08:54:30;1.17;;;0.40;;
15354;SDS011;7777;52.254;9.618;2023-03-14T08:56:56;1.53;;;0.40;;
15354;SDS011;7777;52.254;9.618;2023-03-14T08:59:22;3.87;;;0.70;;
15354;SDS011;7777;52.254;9.618;2023-03-14T09:01:49;0.90;;;0.60;;
15354;SDS011;7777;52.254;9.618;2023-03-14T09:04:15;3.30;;;0.80;;
15354;SDS011;7777;52.254;9.618;2023-03-14T09:06:41;2.80;;;0.80;;
15354;SDS011;7777;52.254;9.618;2023-03-14T09:09:07;2.30;;;1.07;;
15354;SDS011;7777;52.254;9.618;2023-03-14T09:11:32;1.40;;;0.83;;
15354;SDS011;7777;52.254;9.618;2023-03-14T09:13:58;3.50;;;0.90;;
15354;SDS011;7777;52.254;9.618;2023-03-14T09:16:24;2.10;;;1.07;;
15354;SDS011;7777;52.254;9.618;2023-03-14T09:18:50;5.73;;;0.97;;
15354;SDS011;7777;52.254;9.618;2023-03-14T09:21:19;2.53;;;0.90;;
15354;SDS011;7777;52.254;9.618;2023-03-14T09:23:46;1.57;;;0.83;;
15354;SDS011;7777;52.254;9.618;2023-03-14T09:26:11;1.90;;;0.80;;
15354;SDS011;7777;52.254;9.618;2023-03-14T09:28:37;1.77;;;0.90;;
15354;SDS011;7777;52.254;9.618;2023-03-14T09:31:06;3.30;;;0.87;;
15354;SDS011;7777;52.254;9.618;2023-03-14T09:33:34;2.90;;;0.80;;
15354;SDS011;7777;52.254;9.618;2023-03-14T09:36:00;2.27;;;0.80;;
15354;SDS011;7777;52.254;9.618;2023-03-14T09:38:27;2.37;;;0.70;;
15354;SDS011;7777;52.254;9.618;2023-03-14T09:40:53;2.67;;;0.53;;
15354;SDS011;7777;52.254;9.618;2023-03-14T09:43:20;1.47;;;0.60;;
15354;SDS011;7777;52.254;9.618;2023-03-14T09:45:48;1.47;;;0.70;;
15354;SDS011;7777;52.254;9.618;2023-03-14T09:48:26;1.30;;;0.47;;
15354;SDS011;7777;52.254;9.618;2023-03-14T09:50:56;2.40;;;0.60;;
15354;SDS011;7777;52.254;9.618;2023-03-14T09:53:28;2.73;;;0.70;;
15354;SDS011;7777;52.254;9.618;2023-03-14T09:56:28;1.97;;;0.60;;
15354;SDS011;7777;52.254;9.618;2023-03-14T09:59:00;2.80;;;0.50;;
15354;SDS011;7777;52.254;9.618;2023-03-14T10:01:33;0.97;;;0.40;;
15354;SDS011;7777;52.254;9.618;2023-03-14T10:04:01;0.67;;;0.40;;
15354;SDS011;7777;52.254;9.618;2023-03-14T10:06:32;0.60;;;0.37;;
15354;SDS011;7777;52.254;9.618;2023-03-14T10:08:59;1.00;;;0.70;;
15354;SDS011;7777;52.254;9.618;2023-03-14T10:11:27;2.37;;;0.87;;
15354;SDS011;7777;52.254;9.618;2023-03-14T10:14:11;0.73;;;0.40;;
15354;SDS011;7777;52.254;9.618;2023-03-14T10:16:42;1.53;;;0.53;;
15354;SDS011;7777;52.254;9.618;2023-03-14T10:19:11;1.33;;;0.70;;
15354;SDS011;7777;52.254;9.618;2023-03-14T10:21:53;1.70;;;0.60;;
15354;SDS011;7777;52.254;9.618;2023-03-14T10:24:37;2.33;;;0.60;;
15354;SDS011;7777;52.254;9.618;2023-03-14T10:27:20;2.30;;;0.27;;
15354;SDS011;7777;52.254;9.618;2023-03-14T10:29:54;1.17;;;0.70;;
15354;SDS011;7777;52.254;9.618;2023-03-14T10:32:31;1.00;;;0.60;;
15354;SDS011;7777;52.254;9.618;2023-03-14T10:35:05;1.77;;;0.70;;
15354;SDS011;7777;52.254;9.618;2023-03-14T10:37:57;1.57;;;1.07;;
15354;SDS011;7777;52.254;9.618;2023-03-14T10:40:31;1.10;;;0.77;;
15354;SDS011;7777;52.254;9.618;2023-03-14T10:43:05;1.70;;;0.93;;
15354;SDS011;7777;52.254;9.618;2023-03-14T10:45:42;1.00;;;0.90;;
15354;SDS011;7777;52.254;9.618;2023-03-14T10:51:04;1.40;;;0.90;;
15354;SDS011;7777;52.254;9.618;2023-03-14T10:53:39;1.83;;;0.83;;
15354;SDS011;7777;52.254;9.618;2023-03-14T10:56:16;1.27;;;0.70;;
15354;SDS011;7777;52.254;9.618;2023-03-14T10:58:46;1.30;;;1.00;;
15354;SDS011;7777;52.254;9.618;2023-03-14T11:07:38;1.83;;;0.50;;
15354;SDS011;7777;52.254;9.618;2023-03-14T11:16:05;0.77;;;0.63;;
15354;SDS011;7777;52.254;9.618;2023-03-14T11:18:48;0.73;;;0.67;;
15354;SDS011;7777;52.254;9.618;2023-03-14T11:21:36;1.93;;;0.77;;
15354;SDS011;7777;52.254;9.618;2023-03-14T11:24:24;1.53;;;1.10;;
15354;SDS011;7777;52.254;9.618;2023-03-14T11:27:15;3.70;;;0.80;;
15354;SDS011;7777;52.254;9.618;2023-03-14T11:30:03;4.87;;;0.70;;
15354;SDS011;7777;52.254;9.618;2023-03-14T11:33:03;1.80;;;0.60;;
15354;SDS011;7777;52.254;9.618;2023-03-14T11:41:15;0.57;;;0.40;;
15354;SDS011;7777;52.254;9.618;2023-03-14T11:43:55;1.20;;;0.60;;
15354;SDS011;7777;52.254;9.618;2023-03-14T11:46:33;2.83;;;0.90;;
15354;SDS011;7777;52.254;9.618;2023-03-14T11:49:12;1.90;;;1.00;;
15354;SDS011;7777;52.254;9.618;2023-03-14T11:52:29;1.90;;;0.43;;
15354;SDS011;7777;52.254;9.618;2023-03-14T11:55:00;0.77;;;0.60;;
15354;SDS011;7777;52.254;9.618;2023-03-14T11:57:39;2.30;;;0.60;;
15354;SDS011;7777;52.254;9.618;2023-03-14T12:00:13;4.13;;;0.97;;
15354;SDS011;7777;52.254;9.618;2023-03-14T12:02:45;1.80;;;0.70;;
15354;SDS011;7777;52.254;9.618;2023-03-14T12:05:45;0.60;;;0.57;;
15354;SDS011;7777;52.254;9.618;2023-03-14T12:08:46;0.60;;;0.60;;
15354;SDS011;7777;52.254;9.618;2023-03-14T12:14:37;0.73;;;0.50;;
15354;SDS011;7777;52.254;9.618;2023-03-14T12:19:47;0.80;;;0.50;;
15354;SDS011;7777;52.254;9.618;2023-03-14T12:22:29;0.80;;;0.53;;
15354;SDS011;7777;52.254;9.618;2023-03-14T12:25:12;0.40;;;0.40;;
15354;SDS011;7777;52.254;9.618;2023-03-14T12:41:13;1.87;;;0.80;;
15354;SDS011;7777;52.254;9.618;2023-03-14T12:49:47;1.83;;;0.87;;
15354;SDS011;7777;52.254;9.618;2023-03-14T12:52:21;2.90;;;1.10;;
15354;SDS011;7777;52.254;9.618;2023-03-14T12:55:10;4.23;;;0.87;;
15354;SDS011;7777;52.254;9.618;2023-03-14T12:57:45;2.60;;;0.87;;
15354;SDS011;7777;52.254;9.618;2023-03-14T13:00:32;4.87;;;1.30;;
15354;SDS011;7777;52.254;9.618;2023-03-14T13:03:12;4.20;;;1.10;;
15354;SDS011;7777;52.254;9.618;2023-03-14T13:05:54;3.57;;;0.90;;
15354;SDS011;7777;52.254;9.618;2023-03-14T13:11:26;4.50;;;1.37;;
15354;SDS011;7777;52.254;9.618;2023-03-14T13:13:57;7.97;;;1.70;;
15354;SDS011;7777;52.254;9.618;2023-03-14T13:16:24;7.53;;;1.40;;
15354;SDS011;7777;52.254;9.618;2023-03-14T13:18:50;8.70;;;1.80;;
15354;SDS011;7777;52.254;9.618;2023-03-14T13:21:43;10.20;;;1.53;;
15354;SDS011;7777;52.254;9.618;2023-03-14T13:24:25;3.93;;;1.10;;
15354;SDS011;7777;52.254;9.618;2023-03-14T13:26:55;6.87;;;1.40;;
15354;SDS011;7777;52.254;9.618;2023-03-14T13:29:23;7.63;;;1.10;;
15354;SDS011;7777;52.254;9.618;2023-03-14T13:32:15;7.07;;;1.20;;
15354;SDS011;7777;52.254;9.618;2023-03-14T13:34:46;8.20;;;1.60;;
15354;SDS011;7777;52.254;9.618;2023-03-14T13:37:20;6.07;;;1.07;;
15354;SDS011;7777;52.254;9.618;2023-03-14T13:39:49;5.67;;;1.50;;
15354;SDS011;7777;52.254;9.618;2023-03-14T13:42:16;8.50;;;2.00;;
15354;SDS011;7777;52.254;9.618;2023-03-14T13:44:42;5.10;;;1.57;;
15354;SDS011;7777;52.254;9.618;2023-03-14T13:47:18;7.70;;;1.73;;
15354;SDS011;7777;52.254;9.618;2023-03-14T13:49:46;8.50;;;1.70;;
15354;SDS011;7777;52.254;9.618;2023-03-14T13:52:30;6.57;;;2.33;;
15354;SDS011;7777;52.254;9.618;2023-03-14T13:55:04;7.57;;;2.10;;
15354;SDS011;7777;52.254;9.618;2023-03-14T14:02:52;6.77;;;2.23;;
15354;SDS011;7777;52.254;9.618;2023-03-14T14:05:23;8.17;;;2.33;;
15354;SDS011;7777;52.254;9.618;2023-03-14T14:07:53;13.63;;;2.87;;
15354;SDS011;7777;52.254;9.618;2023-03-14T14:10:19;8.17;;;2.67;;
15354;SDS011;7777;52.254;9.618;2023-03-14T14:12:47;8.63;;;1.80;;
15354;SDS011;7777;52.254;9.618;2023-03-14T14:20:23;12.80;;;2.27;;
15354;SDS011;7777;52.254;9.618;2023-03-14T14:22:59;18.60;;;3.73;;
15354;SDS011;7777;52.254;9.618;2023-03-14T14:25:28;5.90;;;2.00;;
15354;SDS011;7777;52.254;9.618;2023-03-14T14:27:55;12.37;;;2.40;;
15354;SDS011;7777;52.254;9.618;2023-03-14T14:32:47;12.70;;;2.43;;
15354;SDS011;7777;52.254;9.618;2023-03-14T14:35:24;16.43;;;2.93;;
15354;SDS011;7777;52.254;9.618;2023-03-14T14:37:55;11.20;;;2.50;;
15354;SDS011;7777;52.254;9.618;2023-03-14T14:40:23;13.77;;;2.87;;
15354;SDS011;7777;52.254;9.618;2023-03-14T14:42:52;20.53;;;3.20;;
15354;SDS011;7777;52.254;9.618;2023-03-14T14:45:19;16.53;;;3.90;;
15354;SDS011;7777;52.254;9.618;2023-03-14T14:47:52;14.30;;;2.20;;
15354;SDS011;7777;52.254;9.618;2023-03-14T14:50:26;16.70;;;3.17;;
15354;SDS011;7777;52.254;9.618;2023-03-14T14:53:03;8.10;;;2.20;;
15354;SDS011;7777;52.254;9.618;2023-03-14T14:55:49;16.10;;;3.00;;
15354;SDS011;7777;52.254;9.618;2023-03-14T14:58:25;17.23;;;3.03;;
15354;SDS011;7777;52.254;9.618;2023-03-14T15:01:37;11.07;;;2.83;;
15354;SDS011;7777;52.254;9.618;2023-03-14T15:04:01;20.53;;;2.60;;
15354;SDS011;7777;52.254;9.618;2023-03-14T15:06:35;11.20;;;2.40;;
15354;SDS011;7777;52.254;9.618;2023-03-14T15:09:01;14.30;;;3.00;;
15354;SDS011;7777;52.254;9.618;2023-03-14T15:11:26;14.83;;;3.00;;
15354;SDS011;7777;52.254;9.618;2023-03-14T15:13:52;14.53;;;3.23;;
15354;SDS011;7777;52.254;9.618;2023-03-14T15:16:23;12.43;;;3.23;;
15354;SDS011;7777;52.254;9.618;2023-03-14T15:18:54;11.40;;;3.03;;
15354;SDS011;7777;52.254;9.618;2023-03-14T15:21:23;13.33;;;2.10;;
15354;SDS011;7777;52.254;9.618;2023-03-14T15:23:50;18.30;;;3.23;;
15354;SDS011;7777;52.254;9.618;2023-03-14T15:26:20;11.77;;;2.27;;
15354;SDS011;7777;52.254;9.618;2023-03-14T15:28:49;16.77;;;2.60;;
15354;SDS011;7777;52.254;9.618;2023-03-14T15:31:16;13.23;;;2.33;;
15354;SDS011;7777;52.254;9.618;2023-03-14T15:33:43;9.93;;;2.30;;
15354;SDS011;7777;52.254;9.618;2023-03-14T15:36:19;10.23;;;1.80;;
15354;SDS011;7777;52.254;9.618;2023-03-14T15:38:54;10.63;;;1.80;;
15354;SDS011;7777;52.254;9.618;2023-03-14T15:41:21;17.03;;;2.43;;
15354;SDS011;7777;52.254;9.618;2023-03-14T15:43:47;16.53;;;2.43;;
15354;SDS011;7777;52.254;9.618;2023-03-14T15:46:13;9.30;;;2.10;;
15354;SDS011;7777;52.254;9.618;2023-03-14T15:48:41;8.90;;;2.53;;
15354;SDS011;7777;52.254;9.618;2023-03-14T15:51:09;13.63;;;2.30;;
15354;SDS011;7777;52.254;9.618;2023-03-14T15:53:34;9.97;;;1.80;;
15354;SDS011;7777;52.254;9.618;2023-03-14T15:56:04;9.27;;;2.13;;
15354;SDS011;7777;52.254;9.618;2023-03-14T15:58:31;11.50;;;2.70;;
15354;SDS011;7777;52.254;9.618;2023-03-14T16:00:59;12.90;;;2.50;;
15354;SDS011;7777;52.254;9.618;2023-03-14T16:03:26;5.63;;;1.70;;
15354;SDS011;7777;52.254;9.618;2023-03-14T16:05:53;8.40;;;1.83;;
15354;SDS011;7777;52.254;9.618;2023-03-14T16:08:20;7.53;;;1.90;;
15354;SDS011;7777;52.254;9.618;2023-03-14T16:10:47;9.60;;;1.93;;
15354;SDS011;7777;52.254;9.618;2023-03-14T16:13:13;6.90;;;1.80;;
15354;SDS011;7777;52.254;9.618;2023-03-14T16:15:39;10.60;;;1.90;;
15354;SDS011;7777;52.254;9.618;2023-03-14T16:18:05;6.97;;;1.80;;
15354;SDS011;7777;52.254;9.618;2023-03-14T16:20:30;11.20;;;1.90;;